Time;durP1;ratioP1;P1;durP2;ratioP2;P2;SDS_P1;SDS_P2;PMS_P1;PMS_P2;Temp;Humidity;BMP_temperature;BMP_pressure;BME280_temperature;BME280_humidity;BME280_pressure;Samples;Min_cycle;Max_cycle;Signal;HPM_P1;HPM_P2
2022/09/20 00:00:37;;;;;;;2.47;1.33;;;13.80;75.30;;;;;;901527;156;27463;-78
2022/09/20 00:03:03;;;;;;;2.57;1.50;;;13.70;75.50;;;;;;902982;156;27379;-78
2022/09/20 00:05:30;;;;;;;3.93;1.10;;;13.70;75.70;;;;;;901523;157;27382;-78
2022/09/20 00:07:57;;;;;;;6.03;1.27;;;13.70;75.70;;;;;;904170;155;27373;-78
2022/09/20 00:10:23;;;;;;;2.67;1.40;;;13.70;75.90;;;;;;902250;155;27394;-78
2022/09/20 00:12:50;;;;;;;1.40;1.30;;;13.70;76.10;;;;;;887633;160;27399;-78
2022/09/20 00:15:16;;;;;;;2.27;1.20;;;13.60;76.20;;;;;;902370;156;27481;-78
2022/09/20 00:17:43;;;;;;;1.37;1.17;;;13.60;76.30;;;;;;902974;155;28082;-78
2022/09/20 00:20:10;;;;;;;1.87;1.10;;;13.60;76.40;;;;;;902376;155;27409;-78
2022/09/20 00:22:36;;;;;;;3.93;1.60;;;13.60;76.60;;;;;;903420;155;27386;-78
2022/09/20 00:25:03;;;;;;;2.87;1.20;;;13.60;76.00;;;;;;902517;154;27469;-78
2022/09/20 00:27:30;;;;;;;2.43;1.63;;;13.50;76.90;;;;;;902612;156;27394;-78
2022/09/20 00:29:57;;;;;;;3.07;1.13;;;13.50;77.10;;;;;;903874;154;27534;-78
2022/09/20 00:32:23;;;;;;;2.73;1.33;;;13.50;77.10;;;;;;903385;155;27423;-78
2022/09/20 00:35:07;;;;;;;4.33;1.30;;;13.50;77.10;;;;;;902412;155;27326;-78
2022/09/20 00:37:34;;;;;;;2.20;1.20;;;13.40;77.10;;;;;;905396;155;28074;-78
2022/09/20 00:40:00;;;;;;;1.70;1.30;;;13.40;77.10;;;;;;903471;155;27399;-78
2022/09/20 00:42:27;;;;;;;2.60;1.07;;;13.30;77.10;;;;;;904797;156;27531;-78
2022/09/20 00:44:53;;;;;;;2.67;1.23;;;13.30;77.10;;;;;;901846;154;27509;-78
2022/09/20 00:47:29;;;;;;;3.60;1.50;;;13.20;77.10;;;;;;903171;155;27447;-78
2022/09/20 00:49:55;;;;;;;2.70;1.30;;;13.10;77.20;;;;;;902460;154;27841;-78
2022/09/20 00:52:22;;;;;;;3.97;1.70;;;13.10;77.30;;;;;;901497;155;27379;-77
2022/09/20 00:54:48;;;;;;;5.97;1.70;;;13.00;77.50;;;;;;903057;155;27409;-77
2022/09/20 00:57:15;;;;;;;1.60;1.47;;;12.90;77.70;;;;;;911616;153;27415;-77
2022/09/20 00:59:41;;;;;;;1.57;1.20;;;12.80;77.80;;;;;;914057;153;27482;-81
2022/09/20 01:02:23;;;;;;;2.60;1.17;;;12.70;78.10;;;;;;911627;154;27486;-80
2022/09/20 01:04:50;;;;;;;3.47;1.37;;;12.60;78.40;;;;;;911429;153;27423;-78
2022/09/20 01:07:16;;;;;;;1.80;1.47;;;12.50;78.70;;;;;;914701;153;27513;-78
2022/09/20 01:09:43;;;;;;;3.93;1.60;;;12.40;79.20;;;;;;909959;154;27429;-79
2022/09/20 01:12:11;;;;;;;4.17;1.50;;;12.40;79.60;;;;;;912251;154;27352;-78
2022/09/20 01:14:36;;;;;;;4.27;1.90;;;12.30;80.00;;;;;;911839;153;27364;-78
2022/09/20 01:17:03;;;;;;;3.00;1.50;;;12.20;80.60;;;;;;913131;153;27697;-78
2022/09/20 01:19:32;;;;;;;3.03;1.20;;;12.20;80.90;;;;;;911171;153;27393;-78
2022/09/20 01:24:42;;;;;;;3.70;1.43;;;12.20;81.20;;;;;;975713;145;37602;-75
2022/09/20 01:27:09;;;;;;;1.97;1.40;;;12.10;82.10;;;;;;971338;145;27704;-78
2022/09/20 01:30:00;;;;;;;2.93;1.57;;;12.10;82.30;;;;;;970459;146;27406;-77
2022/09/20 01:32:27;;;;;;;2.53;1.53;;;12.10;82.70;;;;;;972539;146;27410;-77
2022/09/20 01:34:53;;;;;;;4.00;1.60;;;12.00;82.50;;;;;;973318;146;27267;-76
2022/09/20 01:37:32;;;;;;;1.53;1.33;;;12.00;82.90;;;;;;971824;146;27295;-76
2022/09/20 01:40:26;;;;;;;2.97;1.53;;;12.00;83.10;;;;;;972339;146;27297;-77
2022/09/20 01:43:13;;;;;;;1.70;1.33;;;12.00;83.30;;;;;;943146;151;27414;-78
2022/09/20 01:45:39;;;;;;;2.57;1.50;;;12.00;83.40;;;;;;953792;149;27757;-77
2022/09/20 01:48:09;;;;;;;3.47;1.57;;;12.00;83.70;;;;;;955452;148;27296;-77
2022/09/20 01:50:51;;;;;;;3.80;1.40;;;12.00;84.10;;;;;;953888;148;27775;-76
2022/09/20 01:53:35;;;;;;;3.10;1.40;;;12.00;84.30;;;;;;952558;149;27256;-78
2022/09/20 01:56:29;;;;;;;3.07;1.50;;;12.00;84.40;;;;;;957852;149;27342;-77
2022/09/20 01:59:13;;;;;;;2.43;1.60;;;11.90;84.40;;;;;;955792;149;27363;-77
2022/09/20 02:01:40;;;;;;;2.00;1.50;;;11.90;84.50;;;;;;953432;149;27285;-77
2022/09/20 02:04:31;;;;;;;3.77;1.60;;;11.90;84.60;;;;;;951825;148;27344;-76
2022/09/20 02:06:57;;;;;;;4.23;1.40;;;11.90;85.00;;;;;;929640;148;27279;-76
2022/09/20 02:09:36;;;;;;;3.50;1.60;;;11.80;85.00;;;;;;953163;149;27331;-76
2022/09/20 02:12:18;;;;;;;6.97;1.60;;;11.80;85.50;;;;;;954443;149;27361;-76
2022/09/20 02:15:03;;;;;;;1.63;1.50;;;11.80;85.80;;;;;;952735;149;27351;-76
2022/09/20 02:17:42;;;;;;;2.23;1.70;;;11.70;85.80;;;;;;955857;149;27358;-77
2022/09/20 02:20:08;;;;;;;3.20;1.93;;;11.70;86.00;;;;;;953796;149;27380;-76
2022/09/20 02:22:44;;;;;;;2.67;1.80;;;11.70;86.30;;;;;;954362;148;27396;-77
2022/09/20 02:25:43;;;;;;;3.80;1.57;;;11.60;86.60;;;;;;954049;149;27287;-78
2022/09/20 02:28:13;;;;;;;1.93;1.57;;;11.60;86.40;;;;;;953683;147;27857;-78
2022/09/20 02:31:03;;;;;;;2.80;1.33;;;11.50;86.10;;;;;;954025;149;27436;-77
2022/09/20 02:33:45;;;;;;;4.13;1.93;;;11.50;86.50;;;;;;954007;149;27319;-78
2022/09/20 02:36:29;;;;;;;3.87;1.80;;;11.40;86.50;;;;;;955450;149;27866;-78
2022/09/20 02:39:02;;;;;;;31.40;28.10;;;11.30;86.70;;;;;;952710;149;27284;-78
2022/09/20 02:41:47;;;;;;;61.60;44.83;;;11.30;87.10;;;;;;949515;149;28992;-78
2022/09/20 02:44:26;;;;;;;24.77;18.67;;;11.20;87.20;;;;;;954113;149;27465;-78
2022/09/20 02:47:01;;;;;;;31.67;17.30;;;11.10;87.40;;;;;;955416;147;27432;-78
2022/09/20 02:49:42;;;;;;;21.00;9.77;;;11.10;87.70;;;;;;955710;149;27283;-78
2022/09/20 02:52:46;;;;;;;21.20;8.23;;;11.00;88.00;;;;;;956401;149;27307;-78
2022/09/20 02:55:13;;;;;;;6.60;3.27;;;10.90;88.20;;;;;;954533;148;27371;-78
2022/09/20 02:57:51;;;;;;;8.00;3.00;;;10.80;88.20;;;;;;954788;148;27320;-78
2022/09/20 03:00:24;;;;;;;4.53;2.23;;;10.80;88.90;;;;;;953656;149;27366;-78
2022/09/20 03:03:09;;;;;;;3.57;2.00;;;10.80;89.40;;;;;;956090;149;27471;-79
2022/09/20 03:06:01;;;;;;;1.93;1.70;;;10.70;90.00;;;;;;954218;149;27351;-78
2022/09/20 03:08:32;;;;;;;5.77;2.60;;;10.70;90.20;;;;;;954889;149;27288;-78
2022/09/20 03:11:10;;;;;;;16.77;4.87;;;10.70;90.40;;;;;;953551;149;27271;-78
2022/09/20 03:13:55;;;;;;;11.43;3.40;;;10.70;90.80;;;;;;954603;149;27320;-78
2022/09/20 03:16:28;;;;;;;7.97;3.27;;;10.70;91.00;;;;;;955772;149;27280;-78
2022/09/20 03:18:57;;;;;;;8.30;3.40;;;10.70;91.20;;;;;;955278;149;27315;-78
2022/09/20 03:21:54;;;;;;;13.60;4.13;;;10.80;91.40;;;;;;955139;149;27323;-78
2022/09/20 03:24:41;;;;;;;15.40;4.27;;;10.80;91.60;;;;;;952365;149;27390;-78
2022/09/20 03:27:17;;;;;;;13.43;4.80;;;10.80;91.50;;;;;;948777;150;27900;-78
2022/09/20 03:30:02;;;;;;;11.07;4.10;;;10.80;91.50;;;;;;946485;150;27454;-78
2022/09/20 03:32:56;;;;;;;29.87;7.47;;;10.90;91.70;;;;;;949110;150;27480;-78
2022/09/20 03:35:44;;;;;;;24.87;7.17;;;10.90;91.70;;;;;;909685;153;27495;-78
2022/09/20 03:38:28;;;;;;;41.37;10.77;;;10.90;91.80;;;;;;910442;155;28075;-78
2022/09/20 03:41:07;;;;;;;18.87;4.87;;;10.90;91.80;;;;;;928491;149;27892;-78
2022/09/20 03:43:55;;;;;;;6.83;2.70;;;10.90;92.00;;;;;;939684;149;27805;-78
2022/09/20 03:46:28;;;;;;;3.60;2.20;;;10.90;92.10;;;;;;928521;150;27329;-78
2022/09/20 03:49:12;;;;;;;5.17;2.20;;;10.90;92.00;;;;;;927610;150;27293;-78
2022/09/20 03:51:44;;;;;;;3.40;2.03;;;10.90;91.90;;;;;;933924;149;27369;-78
2022/09/20 03:54:44;;;;;;;5.53;2.37;;;10.90;91.70;;;;;;941695;149;27422;-78
2022/09/20 03:57:11;;;;;;;3.87;2.10;;;10.90;91.60;;;;;;950552;147;27309;-78
2022/09/20 03:59:56;;;;;;;4.93;1.97;;;10.80;91.30;;;;;;948508;147;27281;-77
2022/09/20 04:02:41;;;;;;;3.10;2.00;;;10.70;91.50;;;;;;926063;150;27360;-78
2022/09/20 04:05:13;;;;;;;3.33;2.20;;;10.70;91.50;;;;;;950016;147;27358;-78
2022/09/20 04:07:41;;;;;;;4.27;1.90;;;10.60;91.60;;;;;;949916;147;27335;-77
2022/09/20 04:10:34;;;;;;;3.23;2.03;;;10.60;91.80;;;;;;931359;149;27352;-77
2022/09/20 04:13:25;;;;;;;5.20;2.03;;;10.50;92.00;;;;;;933257;150;27339;-79
2022/09/20 04:16:03;;;;;;;9.47;2.13;;;10.50;92.20;;;;;;944006;148;27762;-79
2022/09/20 04:19:06;;;;;;;6.60;3.00;;;10.40;92.40;;;;;;934702;150;28025;-78
2022/09/20 04:21:48;;;;;;;8.17;3.30;;;10.40;92.60;;;;;;949808;146;27368;-78
2022/09/20 04:24:20;;;;;;;17.37;5.77;;;10.40;92.50;;;;;;933576;150;27510;-78
2022/09/20 04:26:44;;;;;;;12.50;3.93;;;10.40;92.60;;;;;;941759;148;27366;-78
2022/09/20 04:29:13;;;;;;;13.47;5.37;;;10.40;92.70;;;;;;949771;147;27366;-78
2022/09/20 04:31:38;;;;;;;8.63;3.57;;;10.30;92.80;;;;;;949968;147;27437;-78
2022/09/20 04:34:04;;;;;;;12.57;4.60;;;10.30;92.90;;;;;;950396;147;27320;-78
2022/09/20 04:36:55;;;;;;;8.90;3.23;;;10.30;92.90;;;;;;949813;147;27342;-78
2022/09/20 04:39:34;;;;;;;13.63;4.97;;;10.30;92.80;;;;;;950168;147;27350;-78
2022/09/20 04:42:21;;;;;;;9.40;4.83;;;10.30;92.70;;;;;;950633;147;27834;-78
2022/09/20 04:45:07;;;;;;;14.77;5.23;;;10.20;92.70;;;;;;947767;147;27700;-78
2022/09/20 04:47:41;;;;;;;9.57;5.07;;;10.20;92.70;;;;;;938952;147;27384;-78
2022/09/20 04:50:10;;;;;;;5.67;3.03;;;10.10;92.60;;;;;;950686;147;27299;-78
2022/09/20 04:53:02;;;;;;;7.30;2.93;;;10.00;92.70;;;;;;943586;148;27777;-78
2022/09/20 04:55:59;;;;;;;5.87;3.03;;;10.00;92.80;;;;;;944997;149;27914;-78
2022/09/20 04:58:37;;;;;;;4.07;2.77;;;9.90;92.70;;;;;;943856;149;27366;-78
2022/09/20 05:01:18;;;;;;;3.93;2.40;;;9.90;92.70;;;;;;944946;149;27357;-78
2022/09/20 05:04:04;;;;;;;6.73;2.90;;;9.80;92.90;;;;;;945100;149;27422;-78
2022/09/20 05:06:33;;;;;;;5.63;2.77;;;9.70;93.00;;;;;;944933;149;27325;-78
2022/09/20 05:09:02;;;;;;;5.73;2.10;;;9.70;93.10;;;;;;943081;149;27396;-78
2022/09/20 05:11:47;;;;;;;5.33;2.10;;;9.60;93.30;;;;;;945112;149;27407;-78
2022/09/20 05:14:21;;;;;;;3.67;2.20;;;9.60;93.50;;;;;;944389;149;27332;-78
2022/09/20 05:16:57;;;;;;;4.27;2.00;;;9.60;93.50;;;;;;932724;149;27357;-78
2022/09/20 05:19:36;;;;;;;5.07;2.07;;;9.60;93.70;;;;;;943413;149;27453;-78
2022/09/20 05:22:02;;;;;;;5.33;2.30;;;9.50;93.90;;;;;;944545;149;27336;-78
2022/09/20 05:24:44;;;;;;;5.97;2.20;;;9.50;94.20;;;;;;944522;149;27455;-78
2022/09/20 05:27:35;;;;;;;3.60;2.20;;;9.50;94.60;;;;;;922850;149;27318;-80
2022/09/20 05:30:29;;;;;;;3.57;2.00;;;9.50;94.90;;;;;;944777;149;28018;-78
2022/09/20 05:33:01;;;;;;;1.87;1.77;;;9.50;95.20;;;;;;945303;149;27316;-78
2022/09/20 05:35:43;;;;;;;2.87;1.93;;;9.60;95.50;;;;;;933100;149;27376;-78
2022/09/20 05:38:18;;;;;;;3.27;1.83;;;9.70;95.90;;;;;;918289;150;27907;-78
2022/09/20 05:40:45;;;;;;;3.23;2.13;;;9.80;96.90;;;;;;934727;149;27336;-78
2022/09/20 05:43:11;;;;;;;3.07;1.90;;;9.90;98.00;;;;;;949208;147;27412;-78
2022/09/20 05:45:44;;;;;;;4.87;2.00;;;10.20;99.10;;;;;;944382;148;27361;-78
2022/09/20 05:48:10;;;;;;;5.07;2.53;;;10.40;99.80;;;;;;933381;150;27807;-79
2022/09/20 05:50:46;;;;;;;5.17;2.07;;;10.80;99.90;;;;;;928185;150;27339;-78
2022/09/20 05:53:40;;;;;;;3.07;2.00;;;11.20;99.90;;;;;;950735;147;27351;-78
2022/09/20 05:56:28;;;;;;;3.53;2.20;;;11.60;99.90;;;;;;940027;147;27304;-78
2022/09/20 05:59:12;;;;;;;2.93;1.90;;;12.20;99.90;;;;;;947621;147;27383;-78
2022/09/20 06:01:57;;;;;;;3.92;2.30;;;12.80;99.90;;;;;;927612;151;27455;-77
2022/09/20 06:04:23;;;;;;;4.95;1.90;;;13.50;99.90;;;;;;950452;147;27379;-78
2022/09/20 06:07:21;;;;;;;2.75;1.65;;;14.20;99.90;;;;;;949762;147;27330;-78
2022/09/20 06:09:59;;;;;;;3.62;1.95;;;14.80;99.90;;;;;;942415;148;27316;-78
2022/09/20 06:12:38;;;;;;;3.55;1.65;;;15.60;99.90;;;;;;949615;147;27295;-78
2022/09/20 06:15:14;;;;;;;3.50;1.27;;;16.30;98.70;;;;;;950879;147;27282;-78
2022/09/20 06:18:08;;;;;;;3.30;1.90;;;17.00;96.40;;;;;;926894;150;27318;-78
2022/09/20 06:20:43;;;;;;;3.20;1.92;;;17.60;95.00;;;;;;949500;147;27378;-78
2022/09/20 06:23:10;;;;;;;5.33;2.10;;;18.30;93.50;;;;;;929160;149;27457;-77
2022/09/20 06:25:42;;;;;;;3.00;2.00;;;18.80;91.30;;;;;;937776;148;27399;-78
2022/09/20 06:28:15;;;;;;;4.50;2.55;;;19.20;88.10;;;;;;931930;151;27489;-77
2022/09/20 06:30:50;;;;;;;5.53;2.17;;;19.50;83.80;;;;;;931910;151;27435;-77
2022/09/20 06:33:27;;;;;;;2.65;2.05;;;19.70;80.00;;;;;;943647;149;27324;-77
2022/09/20 06:35:52;;;;;;;3.45;2.47;;;19.70;77.40;;;;;;941645;149;27368;-77
2022/09/20 06:43:49;;;;;;;3.12;2.05;;;19.30;73.80;;;;;;949071;148;27372;-77
2022/09/20 06:46:16;;;;;;;5.15;2.50;;;19.10;73.30;;;;;;948498;148;27305;-77
2022/09/20 06:48:42;;;;;;;4.92;2.35;;;18.90;72.90;;;;;;947345;148;27351;-77
2022/09/20 06:51:08;;;;;;;3.12;2.35;;;18.70;72.80;;;;;;948807;148;27357;-77
2022/09/20 06:53:35;;;;;;;3.50;2.30;;;18.40;72.90;;;;;;948428;148;27395;-77
2022/09/20 06:56:01;;;;;;;5.53;2.77;;;18.20;73.10;;;;;;948353;148;27309;-77
2022/09/20 06:58:28;;;;;;;3.00;2.50;;;17.90;73.40;;;;;;949007;148;27335;-77
2022/09/20 07:00:55;;;;;;;4.40;2.70;;;17.80;73.80;;;;;;948977;148;27313;-78
2022/09/20 07:03:21;;;;;;;5.78;2.75;;;17.50;74.10;;;;;;948711;148;27792;-77
2022/09/20 07:05:48;;;;;;;6.45;2.50;;;17.40;74.40;;;;;;949322;148;27441;-77
2022/09/20 07:08:14;;;;;;;3.15;2.52;;;17.20;74.60;;;;;;948611;148;27325;-77
2022/09/20 07:10:42;;;;;;;5.33;3.55;;;17.10;74.90;;;;;;948378;148;27371;-77
2022/09/20 07:13:08;;;;;;;5.28;3.50;;;16.90;75.30;;;;;;948530;148;27346;-77
2022/09/20 07:15:34;;;;;;;4.50;2.85;;;16.80;75.70;;;;;;948756;148;27429;-77
2022/09/20 07:18:01;;;;;;;4.47;3.25;;;16.60;76.00;;;;;;948902;148;27353;-77
2022/09/20 07:20:27;;;;;;;3.40;3.10;;;16.50;76.30;;;;;;948892;148;27330;-77
2022/09/20 07:22:54;;;;;;;5.72;3.27;;;16.40;76.70;;;;;;946686;148;27445;-77
2022/09/20 07:25:20;;;;;;;3.85;3.40;;;16.40;77.20;;;;;;948813;148;27360;-77
2022/09/20 07:27:48;;;;;;;8.43;3.62;;;16.30;77.50;;;;;;944567;149;27447;-77
2022/09/20 07:30:14;;;;;;;8.25;3.72;;;16.20;77.70;;;;;;943630;149;27361;-77
2022/09/20 07:32:40;;;;;;;6.20;3.62;;;16.20;77.90;;;;;;943322;149;28650;-77
2022/09/20 07:35:10;;;;;;;4.60;3.27;;;16.10;78.30;;;;;;941566;149;27375;-77
2022/09/20 07:37:36;;;;;;;5.42;4.42;;;16.10;78.60;;;;;;944181;149;27289;-77
2022/09/20 07:40:03;;;;;;;4.45;3.87;;;16.10;78.90;;;;;;943354;149;27399;-77
2022/09/20 07:42:29;;;;;;;5.67;4.03;;;16.10;79.20;;;;;;943846;149;27384;-77
2022/09/20 07:44:56;;;;;;;10.40;5.12;;;16.10;79.20;;;;;;943820;149;27374;-77
2022/09/20 07:47:26;;;;;;;6.40;4.65;;;16.10;79.40;;;;;;943937;149;27289;-77
2022/09/20 07:49:49;;;;;;;6.37;4.42;;;16.10;79.50;;;;;;943070;149;27399;-77
2022/09/20 07:52:16;;;;;;;8.73;4.30;;;16.10;79.60;;;;;;943808;149;27350;-77
2022/09/20 07:54:44;;;;;;;5.35;3.72;;;16.10;79.80;;;;;;943845;149;27353;-77
2022/09/20 07:57:09;;;;;;;6.50;4.00;;;16.10;80.00;;;;;;943622;149;27447;-77
2022/09/20 07:59:36;;;;;;;6.85;3.72;;;16.20;80.30;;;;;;943804;149;27317;-77
2022/09/20 08:02:02;;;;;;;7.35;3.92;;;16.20;80.10;;;;;;944054;149;27279;-77
2022/09/20 08:04:29;;;;;;;5.40;3.85;;;16.20;80.10;;;;;;943593;149;27388;-77
2022/09/20 08:06:57;;;;;;;5.58;3.80;;;16.30;80.10;;;;;;944152;149;27325;-77
2022/09/20 08:09:22;;;;;;;5.67;3.75;;;16.30;80.00;;;;;;943180;149;27349;-77
2022/09/20 08:11:49;;;;;;;3.67;3.10;;;16.40;79.80;;;;;;944156;149;27375;-77
2022/09/20 08:14:15;;;;;;;9.85;3.52;;;16.50;79.60;;;;;;943707;149;27342;-77
2022/09/20 08:16:45;;;;;;;4.80;3.60;;;16.50;79.40;;;;;;943825;149;27313;-77
2022/09/20 08:19:17;;;;;;;3.98;3.17;;;16.50;79.30;;;;;;943444;149;27349;-77
2022/09/20 08:21:44;;;;;;;5.75;3.27;;;16.60;79.20;;;;;;943396;149;27460;-77
2022/09/20 08:24:10;;;;;;;3.55;3.10;;;16.70;79.30;;;;;;943277;149;27428;-76
2022/09/20 08:26:37;;;;;;;4.58;2.87;;;16.70;79.30;;;;;;943842;149;27411;-77
2022/09/20 08:29:06;;;;;;;5.78;3.02;;;16.80;79.20;;;;;;943375;149;27248;-77
2022/09/20 08:31:35;;;;;;;5.00;2.95;;;16.90;79.10;;;;;;943757;149;27452;-77
2022/09/20 08:33:57;;;;;;;3.33;2.87;;;17.00;78.90;;;;;;943226;149;27353;-77
2022/09/20 08:36:23;;;;;;;5.72;3.25;;;17.10;78.60;;;;;;943756;149;27353;-77
2022/09/20 08:38:50;;;;;;;5.10;3.00;;;17.20;78.20;;;;;;943270;149;27329;-77
2022/09/20 08:41:16;;;;;;;5.08;3.00;;;17.30;77.70;;;;;;943297;149;27326;-77
2022/09/20 08:43:55;;;;;;;4.00;2.65;;;17.40;77.50;;;;;;943878;149;27444;-77
2022/09/20 08:46:34;;;;;;;5.20;2.60;;;17.40;77.20;;;;;;942248;149;27449;-77
2022/09/20 08:49:00;;;;;;;7.05;2.70;;;17.50;77.30;;;;;;942873;149;27365;-77
2022/09/20 08:51:28;;;;;;;4.30;3.33;;;17.60;77.50;;;;;;942455;149;27957;-77
2022/09/20 08:53:53;;;;;;;4.78;2.80;;;17.70;77.40;;;;;;942991;149;27398;-77
2022/09/20 08:56:20;;;;;;;4.97;3.02;;;17.90;77.10;;;;;;942834;149;27860;-77
2022/09/20 08:58:46;;;;;;;3.45;2.90;;;17.90;77.00;;;;;;942862;149;27425;-78
2022/09/20 09:01:13;;;;;;;3.10;2.62;;;18.10;76.80;;;;;;943963;149;27358;-78
2022/09/20 09:03:39;;;;;;;4.97;2.92;;;18.20;76.80;;;;;;942379;149;27279;-78
2022/09/20 09:06:06;;;;;;;4.80;2.92;;;18.40;76.80;;;;;;944295;149;27333;-77
2022/09/20 09:08:33;;;;;;;4.90;2.27;;;18.50;76.60;;;;;;942789;149;27429;-77
2022/09/20 09:11:08;;;;;;;3.12;2.02;;;18.70;76.00;;;;;;943634;149;27369;-77
2022/09/20 09:13:37;;;;;;;6.90;2.60;;;18.90;75.10;;;;;;943834;149;27360;-77
2022/09/20 09:16:09;;;;;;;2.35;1.80;;;19.20;74.60;;;;;;939625;149;27338;-77
2022/09/20 09:18:36;;;;;;;3.52;2.30;;;19.40;73.90;;;;;;942448;149;27325;-77
2022/09/20 09:21:06;;;;;;;2.37;1.90;;;19.60;73.20;;;;;;943800;149;27373;-77
2022/09/20 09:23:34;;;;;;;2.98;1.75;;;19.80;72.20;;;;;;942580;149;27459;-77
2022/09/20 09:25:56;;;;;;;6.22;2.27;;;20.00;71.40;;;;;;943108;149;27334;-77
2022/09/20 09:28:22;;;;;;;3.72;2.12;;;20.10;70.30;;;;;;942743;149;27369;-77
2022/09/20 09:30:49;;;;;;;3.70;1.87;;;20.20;69.40;;;;;;943209;149;27357;-77
2022/09/20 09:33:28;;;;;;;3.58;2.27;;;20.30;68.90;;;;;;942955;149;27372;-77
2022/09/20 09:36:03;;;;;;;2.50;1.90;;;20.40;68.30;;;;;;943184;149;27376;-77
2022/09/20 09:38:30;;;;;;;3.05;1.70;;;20.50;67.80;;;;;;942933;149;27346;-77
2022/09/20 09:40:57;;;;;;;2.42;1.60;;;20.50;67.50;;;;;;943353;149;27281;-77
2022/09/20 09:43:27;;;;;;;2.25;1.85;;;20.60;67.10;;;;;;943205;149;27325;-77
2022/09/20 09:45:53;;;;;;;3.15;1.95;;;20.70;66.80;;;;;;943869;149;27337;-77
2022/09/20 09:48:22;;;;;;;3.80;1.85;;;20.70;66.40;;;;;;942641;149;27369;-77
2022/09/20 09:50:49;;;;;;;3.70;1.70;;;20.80;65.90;;;;;;943215;149;27432;-77
2022/09/20 09:53:15;;;;;;;3.25;1.80;;;20.80;65.40;;;;;;944315;149;27356;-77
2022/09/20 09:55:45;;;;;;;3.50;2.00;;;20.80;64.80;;;;;;942392;149;27321;-78
2022/09/20 09:58:33;;;;;;;3.22;2.22;;;20.90;64.60;;;;;;943204;149;27357;-77
2022/09/20 10:01:00;;;;;;;3.83;1.77;;;20.90;64.30;;;;;;942681;149;27377;-77
2022/09/20 10:03:32;;;;;;;3.30;2.00;;;20.90;64.30;;;;;;942633;149;27446;-77
2022/09/20 10:05:59;;;;;;;4.08;1.50;;;20.80;63.70;;;;;;943240;149;27490;-78
2022/09/20 10:08:44;;;;;;;5.03;1.72;;;20.80;63.70;;;;;;942582;149;27395;-78
2022/09/20 10:11:19;;;;;;;3.15;1.77;;;20.80;63.70;;;;;;941349;149;27313;-77
2022/09/20 10:14:04;;;;;;;4.40;1.50;;;20.80;63.90;;;;;;943093;149;27302;-77
2022/09/20 10:16:43;;;;;;;2.83;1.67;;;20.80;63.70;;;;;;943856;149;27330;-77
2022/09/20 10:19:15;;;;;;;2.50;1.60;;;20.80;62.90;;;;;;940984;149;27861;-77
2022/09/20 10:21:50;;;;;;;5.08;2.67;;;20.80;62.80;;;;;;943415;149;27313;-77
2022/09/20 10:24:39;;;;;;;3.80;2.05;;;20.90;62.90;;;;;;943234;149;27298;-77
2022/09/20 10:27:05;;;;;;;2.62;1.35;;;20.90;62.90;;;;;;943174;149;27454;-77
2022/09/20 10:29:51;;;;;;;3.30;1.85;;;21.00;62.80;;;;;;941777;149;27313;-77
2022/09/20 10:32:45;;;;;;;2.90;1.30;;;21.10;62.60;;;;;;942856;149;27349;-77
2022/09/20 10:35:13;;;;;;;2.75;1.40;;;21.20;62.60;;;;;;943246;149;27353;-77
2022/09/20 10:37:49;;;;;;;3.20;1.55;;;21.40;62.60;;;;;;942803;149;27283;-78
2022/09/20 10:40:25;;;;;;;3.80;1.70;;;21.50;62.20;;;;;;943572;149;27366;-78
2022/09/20 10:45:51;;;;;;;1.70;1.20;;;21.90;61.70;;;;;;943438;149;27467;-78
2022/09/20 10:48:32;;;;;;;1.52;1.42;;;22.20;61.70;;;;;;942136;149;27370;-78
2022/09/20 10:51:08;;;;;;;1.65;1.20;;;22.40;60.90;;;;;;942752;149;27599;-78
2022/09/20 10:53:43;;;;;;;3.50;1.80;;;22.50;60.40;;;;;;939259;149;27346;-78
2022/09/20 10:56:22;;;;;;;1.80;1.40;;;22.60;59.80;;;;;;942530;149;27766;-78
2022/09/20 10:58:58;;;;;;;2.10;1.75;;;22.70;59.30;;;;;;942541;149;27354;-78
2022/09/20 11:01:35;;;;;;;2.40;1.52;;;22.80;58.60;;;;;;938612;149;27381;-78
2022/09/20 11:04:20;;;;;;;2.77;1.07;;;22.80;58.20;;;;;;942752;149;27334;-78
2022/09/20 11:06:56;;;;;;;1.40;1.15;;;22.70;57.60;;;;;;942350;149;27349;-77
2022/09/20 11:09:22;;;;;;;3.83;1.60;;;22.70;57.40;;;;;;940385;149;27329;-78
2022/09/20 11:11:51;;;;;;;3.58;1.32;;;22.60;57.30;;;;;;941166;149;28264;-78
2022/09/20 11:14:28;;;;;;;3.85;1.37;;;22.60;57.40;;;;;;943121;149;27334;-77
2022/09/20 11:16:59;;;;;;;2.67;1.55;;;22.50;57.60;;;;;;942145;149;27410;-78
2022/09/20 11:19:33;;;;;;;2.92;1.80;;;22.60;57.70;;;;;;943153;149;27423;-78
2022/09/20 11:22:01;;;;;;;2.47;1.30;;;22.60;57.70;;;;;;943139;149;27302;-78
2022/09/20 11:24:34;;;;;;;2.22;1.20;;;22.60;57.50;;;;;;942526;149;27459;-78
2022/09/20 11:27:06;;;;;;;1.75;1.00;;;22.70;57.60;;;;;;942275;149;27364;-78
2022/09/20 11:29:35;;;;;;;2.22;1.27;;;22.70;57.30;;;;;;942181;149;27362;-78
2022/09/20 11:32:02;;;;;;;1.15;1.00;;;22.80;57.20;;;;;;941080;149;27335;-78
2022/09/20 11:34:32;;;;;;;2.80;1.30;;;22.90;57.00;;;;;;942357;149;27361;-78
2022/09/20 11:37:00;;;;;;;1.52;1.00;;;22.90;56.50;;;;;;942811;149;27346;-78
2022/09/20 11:39:25;;;;;;;2.25;1.30;;;22.90;56.30;;;;;;942260;149;27408;-78
2022/09/20 11:41:52;;;;;;;1.75;1.30;;;23.00;56.00;;;;;;942724;149;27415;-78
2022/09/20 11:44:18;;;;;;;4.28;1.40;;;22.90;55.60;;;;;;942693;149;27317;-78
2022/09/20 11:47:00;;;;;;;3.12;1.90;;;22.80;55.30;;;;;;943313;149;27443;-78
2022/09/20 11:49:29;;;;;;;1.30;1.02;;;22.70;55.20;;;;;;942074;149;28256;-77
2022/09/20 11:52:02;;;;;;;1.77;1.10;;;22.60;55.30;;;;;;943167;149;27675;-77
2022/09/20 11:54:48;;;;;;;1.35;1.10;;;22.50;55.20;;;;;;942230;149;27464;-77
2022/09/20 11:57:17;;;;;;;2.12;1.00;;;22.50;56.00;;;;;;943530;149;27377;-77
2022/09/20 11:59:44;;;;;;;1.80;1.17;;;22.40;55.40;;;;;;943242;149;27318;-77
2022/09/20 12:02:23;;;;;;;1.67;1.00;;;22.40;55.30;;;;;;939781;149;27259;-77
2022/09/20 12:04:52;;;;;;;2.77;0.90;;;22.40;55.00;;;;;;942948;149;27419;-77
2022/09/20 12:07:18;;;;;;;3.55;1.10;;;22.30;55.00;;;;;;943607;149;27315;-77
2022/09/20 12:09:45;;;;;;;1.95;1.30;;;22.30;54.70;;;;;;943016;149;27295;-77
2022/09/20 12:12:30;;;;;;;4.62;1.35;;;22.20;54.60;;;;;;942188;149;27298;-77
2022/09/20 12:14:57;;;;;;;3.15;1.40;;;22.10;54.60;;;;;;942992;149;27379;-77
2022/09/20 12:17:45;;;;;;;2.70;1.27;;;22.00;54.70;;;;;;943762;149;27298;-77
2022/09/20 12:20:41;;;;;;;3.67;1.50;;;21.90;54.80;;;;;;943176;149;27372;-77
2022/09/20 12:26:09;;;;;;;1.00;0.68;;;21.60;54.90;;;;;;888607;157;27461;-77
2022/09/20 12:28:34;;;;;;;2.02;1.12;;;21.40;55.30;;;;;;926514;149;27436;-77
2022/09/20 12:31:24;;;;;;;0.78;0.78;;;21.20;55.60;;;;;;935371;149;27386;-77
2022/09/20 12:34:00;;;;;;;0.95;0.80;;;21.00;55.80;;;;;;914525;150;27751;-77
2022/09/20 12:36:26;;;;;;;1.10;0.80;;;20.80;56.20;;;;;;926995;150;27347;-77
2022/09/20 12:38:53;;;;;;;2.08;1.10;;;20.60;56.60;;;;;;949527;147;27730;-77
2022/09/20 12:41:20;;;;;;;1.37;1.00;;;20.40;57.10;;;;;;927025;149;27355;-77
2022/09/20 12:43:46;;;;;;;2.15;1.12;;;20.30;57.90;;;;;;933833;150;27367;-77
2022/09/20 12:46:31;;;;;;;2.77;1.35;;;20.20;58.20;;;;;;931765;150;27445;-77
2022/09/20 12:52:49;;;;;;;1.47;1.37;;;20.10;58.60;;;;;;930753;150;27278;-77
2022/09/20 12:54:30;;;;;;;1.40;1.27;;;20.00;58.90;;;;;;935933;149;27962;-77
2022/09/20 12:56:57;;;;;;;1.75;1.30;;;20.00;59.40;;;;;;950153;147;27281;-77
2022/09/20 12:59:23;;;;;;;1.45;0.80;;;20.00;59.80;;;;;;929310;150;27363;-77
2022/09/20 13:01:50;;;;;;;1.70;0.90;;;20.00;59.60;;;;;;948475;147;27336;-77
2022/09/20 13:04:51;;;;;;;1.07;0.68;;;20.10;59.60;;;;;;940875;149;27346;-77
2022/09/20 13:07:32;;;;;;;0.93;0.82;;;20.10;59.40;;;;;;940483;149;27373;-77
2022/09/20 13:09:58;;;;;;;0.95;0.90;;;20.20;58.90;;;;;;937951;147;27294;-77
2022/09/20 13:12:25;;;;;;;2.25;0.80;;;20.20;58.40;;;;;;940331;149;27408;-77
2022/09/20 13:14:51;;;;;;;0.72;0.72;;;20.20;58.30;;;;;;941520;149;27321;-77
2022/09/20 13:17:29;;;;;;;2.08;0.78;;;20.20;57.90;;;;;;950700;147;27400;-77
2022/09/20 13:19:54;;;;;;;1.35;0.90;;;20.20;57.60;;;;;;926615;150;27378;-77
2022/09/20 13:22:23;;;;;;;1.70;0.85;;;20.20;57.20;;;;;;941453;149;27362;-77
2022/09/20 13:24:50;;;;;;;1.17;0.88;;;20.10;57.00;;;;;;940483;149;27312;-77
2022/09/20 13:27:16;;;;;;;0.78;0.72;;;20.10;56.90;;;;;;941049;149;27334;-77
2022/09/20 13:29:46;;;;;;;1.77;0.95;;;20.00;56.90;;;;;;941155;149;27350;-77
2022/09/20 13:32:31;;;;;;;2.40;1.07;;;19.90;56.70;;;;;;951005;148;27891;-77
2022/09/20 13:35:12;;;;;;;1.00;0.88;;;19.80;56.80;;;;;;951388;148;28537;-77